Flight Track Log - Related Links

Times and Time Zones

All times are in EDT time to prevent confusion due to time zone crossing. See the TAM3516 flight status page for this flight to view local times or setup timezone preferences in your user account.


Time Position Orientation Groundspeed Altitude Reporting Facility
EDT Latitude Longitude Course Direction KTS MPH feet Rate Location/Type
Thu 04:05:57 PM -23.4250 -46.4510 73° East 170 196 2,700  Level FlightAware ADS-B
Thu 04:06:22 PM -23.4200 -46.4300 75° East 176 203 3,700 1,527 Climbing FlightAware ADS-B
Thu 04:06:52 PM -23.4110 -46.4020 71° East 215 247 4,100 873 Climbing FlightAware ADS-B
Thu 04:07:17 PM -23.4040 -46.3760 74° East 249 287 4,500 1,855 Climbing FlightAware ADS-B
Thu 04:07:47 PM -23.3920 -46.3370 71° East 269 310 5,800 2,700 Climbing FlightAware ADS-B
Thu 04:08:17 PM -23.3790 -46.2950 71° East 278 320 7,200 2,800 Climbing FlightAware ADS-B
Thu 04:08:32 PM -23.3730 -46.2750 72° East 279 321 7,900 2,700 Climbing FlightAware ADS-B
Thu 04:08:57 PM -23.3540 -46.2460 54° Northeast 293 337 9,000 2,550 Climbing FlightAware ADS-B
Thu 04:09:12 PM -23.3370 -46.2390 21° North 286 329 9,600 1,855 Climbing FlightAware ADS-B
Thu 04:09:52 PM -23.2800 -46.2240 14° North 318 366 10,700 1,624 Climbing FlightAware ADS-B
Thu 04:10:37 PM -23.2090 -46.2040 15° North 346 398 11,900 1,765 Climbing FlightAware ADS-B
Thu 04:11:17 PM -23.1450 -46.1860 14° North 365 420 13,200 2,047 Climbing FlightAware ADS-B
Thu 04:12:02 PM -23.0730 -46.1640 16° North 362 417 14,800 2,047 Climbing FlightAware ADS-B
Thu 04:12:42 PM -23.0070 -46.1390 19° North 376 433 16,100 1,691 Climbing FlightAware ADS-B
Thu 04:13:52 PM -22.9120 -46.1020 20° North 377 434 17,900 1,800 Climbing FlightAware ADS-B
Thu 04:14:32 PM -22.8200 -46.0670 19° North 396 456 19,400 1,906 Climbing FlightAware ADS-B
Thu 04:15:17 PM -22.7410 -46.0370 19° North 394 453 20,600 1,624 Climbing FlightAware ADS-B
Thu 04:15:57 PM -22.6720 -46.0100 20° North 407 468 21,700 1,553 Climbing FlightAware ADS-B
Thu 04:16:42 PM -22.5890 -45.9790 19° North 413 475 22,800 1,553 Climbing FlightAware ADS-B
Thu 04:17:22 PM -22.5180 -45.9510 20° North 413 475 23,900 1,650 Climbing FlightAware ADS-B
Thu 04:18:02 PM -22.4440 -45.9230 19° North 413 475 25,000 1,412 Climbing FlightAware ADS-B
Thu 04:18:47 PM -22.3630 -45.8920 19° North 414 476 25,900 1,200 Climbing FlightAware ADS-B
Thu 04:19:27 PM -22.2880 -45.8640 19° North 427 491 26,700 1,125 Climbing FlightAware ADS-B
Thu 04:20:07 PM -22.2110 -45.8350 19° North 428 493 27,400 1,059 Climbing FlightAware ADS-B
Thu 04:20:52 PM -22.1260 -45.8020 20° North 440 506 28,200 1,059 Climbing FlightAware ADS-B
Thu 04:21:32 PM -22.0480 -45.7730 19° North 444 511 28,900 1,059 Climbing FlightAware ADS-B
Thu 04:22:17 PM -21.9600 -45.7400 19° North 442 509 29,700 988 Climbing FlightAware ADS-B
Thu 04:22:57 PM -21.8810 -45.7100 19° North 446 513 30,300 918 Climbing FlightAware ADS-B
Thu 04:23:42 PM -21.7930 -45.6770 19° North 448 516 31,000 1,129 Climbing FlightAware ADS-B
Thu 04:24:22 PM -21.7150 -45.6470 20° North 444 511 31,900 1,200 Climbing FlightAware ADS-B
Thu 04:25:02 PM -21.6340 -45.6170 19° North 444 511 32,600 988 Climbing FlightAware ADS-B
Thu 04:25:47 PM -21.5480 -45.5840 20° North 445 512 33,300 750 Climbing FlightAware ADS-B
Thu 04:26:22 PM -21.4850 -45.5540 24° Northeast 450 518 33,600 635 Climbing FlightAware ADS-B
Thu 04:27:12 PM -21.3880 -45.4900 32° Northeast 458 527 34,200 800 Climbing FlightAware ADS-B
Thu 04:27:52 PM -21.3150 -45.4400 33° Northeast 457 526 34,800 750 Climbing FlightAware ADS-B
Thu 04:28:32 PM -21.2420 -45.3910 32° Northeast 461 531 35,200 635 Climbing FlightAware ADS-B
Thu 04:29:17 PM -21.1620 -45.3350 33° Northeast 462 532 35,700 525 Climbing FlightAware ADS-B
Thu 04:29:52 PM -21.0950 -45.2900 32° Northeast 473 544 35,900 433 Climbing FlightAware ADS-B
Thu 04:32:00 PM -20.9215 -45.1386 39° Northeast  Level Estimated
Thu 04:32:17 PM -20.8240 -45.1050 39° Northeast 479 551 37,000  Level FlightAware ADS-B
Thu 04:32:57 PM -20.7480 -45.0530 33° Northeast 476 548 37,000  Level FlightAware ADS-B
Thu 04:33:42 PM -20.6670 -44.9970 33° Northeast 476 548 37,000  Level FlightAware ADS-B
Thu 04:34:22 PM -20.5880 -44.9440 32° Northeast 477 549 37,000  Level FlightAware ADS-B
Thu 04:35:07 PM -20.5120 -44.8910 33° Northeast 477 549 37,000  Level FlightAware ADS-B
Thu 04:35:47 PM -20.4340 -44.8370 33° Northeast 477 549 37,000  Level FlightAware ADS-B
Thu 04:36:27 PM -20.3580 -44.7860 32° Northeast 476 548 37,000  Level FlightAware ADS-B
Thu 04:37:12 PM -20.2750 -44.7290 33° Northeast 477 549 37,000  Level FlightAware ADS-B
Thu 04:37:52 PM -20.2020 -44.6790 33° Northeast 477 549 37,000  Level FlightAware ADS-B
Thu 04:38:32 PM -20.1260 -44.6270 33° Northeast 477 549 37,000  Level FlightAware ADS-B
Thu 04:39:17 PM -20.0440 -44.5670 35° Northeast 482 555 37,000  Level FlightAware ADS-B
Thu 04:39:57 PM -19.9800 -44.5060 42° Northeast 488 562 37,000  Level FlightAware ADS-B
Thu 04:40:42 PM -19.9080 -44.4260 46° Northeast 487 560 37,000  Level FlightAware ADS-B
Thu 04:41:22 PM -19.8460 -44.3580 46° Northeast 485 558 37,000  Level FlightAware ADS-B
Thu 04:42:02 PM -19.7810 -44.2870 46° Northeast 486 559 37,000  Level FlightAware ADS-B
Thu 04:42:47 PM -19.7140 -44.2150 45° Northeast 486 559 37,000  Level FlightAware ADS-B
Thu 04:43:22 PM -19.6510 -44.1480 45° Northeast 486 559 37,000  Level FlightAware ADS-B
Thu 04:44:02 PM -19.5860 -44.0850 42° Northeast 484 557 37,000  Level FlightAware ADS-B
Thu 04:44:37 PM -19.5230 -44.0380 35° Northeast 479 551 37,000  Level FlightAware ADS-B
Thu 04:45:17 PM -19.4470 -43.9950 28° Northeast 471 542 37,000  Level FlightAware ADS-B
Thu 04:46:02 PM -19.3570 -43.9520 24° Northeast 468 539 37,000  Level FlightAware ADS-B
Thu 04:46:42 PM -19.2760 -43.9130 24° Northeast 464 534 37,000  Level FlightAware ADS-B
Thu 04:47:27 PM -19.1930 -43.8730 24° Northeast 462 532 37,000  Level FlightAware ADS-B
Thu 04:48:07 PM -19.1110 -43.8330 25° Northeast 460 529 37,000  Level FlightAware ADS-B
Thu 04:48:42 PM -19.0430 -43.8010 24° Northeast 460 529 37,000  Level FlightAware ADS-B
Thu 04:49:32 PM -18.9470 -43.7550 24° Northeast 460 529 37,000  Level FlightAware ADS-B
Thu 04:50:07 PM -18.8790 -43.7230 24° Northeast 459 528 37,000  Level FlightAware ADS-B
Thu 04:50:52 PM -18.7930 -43.6810 25° Northeast 459 528 37,000  Level FlightAware ADS-B
Thu 04:51:42 PM -18.6980 -43.6360 24° Northeast 462 532 37,000  Level FlightAware ADS-B
Thu 04:52:17 PM -18.6240 -43.6000 25° Northeast 464 534 37,000  Level FlightAware ADS-B
Thu 04:53:02 PM -18.5370 -43.5570 25° Northeast 471 542 37,000  Level FlightAware ADS-B
Thu 04:54:02 PM -18.4290 -43.4800 34° Northeast 481 554 37,000  Level FlightAware ADS-B
Thu 04:54:42 PM -18.3610 -43.4250 38° Northeast 480 552 37,000  Level FlightAware ADS-B
Thu 04:55:22 PM -18.2870 -43.3660 37° Northeast 478 550 37,000  Level FlightAware ADS-B
Thu 04:56:07 PM -18.2080 -43.3030 37° Northeast 479 551 37,000  Level FlightAware ADS-B
Thu 04:56:47 PM -18.1380 -43.2470 37° Northeast 480 552 37,000  Level FlightAware ADS-B
Thu 04:57:32 PM -18.0580 -43.1830 37° Northeast 480 552 37,000  Level FlightAware ADS-B
Thu 04:58:12 PM -17.9860 -43.1250 37° Northeast 483 556 37,000  Level FlightAware ADS-B
Thu 04:58:57 PM -17.9070 -43.0620 37° Northeast 483 556 37,000  Level FlightAware ADS-B
Thu 04:59:37 PM -17.8350 -43.0050 37° Northeast 484 557 37,000  Level FlightAware ADS-B
Thu 05:00:17 PM -17.7660 -42.9500 37° Northeast 485 558 37,000  Level FlightAware ADS-B
Thu 05:01:02 PM -17.6830 -42.8840 37° Northeast 486 559 37,000  Level FlightAware ADS-B
Thu 05:01:42 PM -17.6170 -42.8310 37° Northeast 485 558 37,000  Level FlightAware ADS-B
Thu 05:02:27 PM -17.5320 -42.7640 37° Northeast 482 555 37,000  Level FlightAware ADS-B
Thu 05:03:07 PM -17.4650 -42.7110 37° Northeast 478 550 37,000  Level FlightAware ADS-B
Thu 05:03:47 PM -17.3910 -42.6520 37° Northeast 476 548 37,000  Level FlightAware ADS-B
Thu 05:04:27 PM -17.3200 -42.5960 37° Northeast 473 544 37,000  Level FlightAware ADS-B
Thu 05:05:12 PM -17.2420 -42.5340 37° Northeast 474 545 37,000  Level FlightAware ADS-B
Thu 05:06:07 PM -17.1490 -42.4610 37° Northeast 475 547 37,000  Level FlightAware ADS-B
Thu 05:06:47 PM -17.0750 -42.4020 37° Northeast 477 549 37,000  Level FlightAware ADS-B
Thu 05:07:32 PM -16.9940 -42.3390 37° Northeast 479 551 37,000  Level FlightAware ADS-B
Thu 05:08:12 PM -16.9230 -42.2830 37° Northeast 481 554 37,000  Level FlightAware ADS-B
Thu 05:08:52 PM -16.8520 -42.2270 37° Northeast 480 552 37,000  Level FlightAware ADS-B
Thu 05:09:37 PM -16.7820 -42.1720 37° Northeast 479 551 37,000  Level FlightAware ADS-B
Thu 05:10:17 PM -16.7010 -42.1110 36° Northeast 471 542 37,000  Level FlightAware ADS-B
Thu 05:11:17 PM -16.5980 -42.0410 33° Northeast 472 543 37,000  Level FlightAware ADS-B
Thu 05:11:57 PM -16.5190 -41.9860 34° Northeast 471 542 37,000  Level FlightAware ADS-B
Thu 05:12:57 PM -16.4170 -41.9170 33° Northeast 471 542 37,000  Level FlightAware ADS-B
Thu 05:13:37 PM -16.3550 -41.8750 33° Northeast 471 542 37,000  Level FlightAware ADS-B
Thu 05:14:17 PM -16.2930 -41.8330 33° Northeast 471 542 37,000  Level FlightAware ADS-B
Thu 05:14:57 PM -16.2310 -41.7910 33° Northeast 471 542 37,000  Level FlightAware ADS-B
Thu 05:15:37 PM -16.1690 -41.7490 33° Northeast 471 542 37,000  Level FlightAware ADS-B
Thu 05:16:17 PM -16.1070 -41.7070 33° Northeast 471 542 37,000  Level FlightAware ADS-B
Thu 05:16:57 PM -16.0450 -41.6650 33° Northeast 471 542 37,000  Level FlightAware ADS-B
Thu 05:17:47 PM -15.9670 -41.6130 33° Northeast 471 542 37,000  Level FlightAware ADS-B
Thu 05:18:27 PM -15.9050 -41.5710 33° Northeast 471 542 37,000  Level FlightAware ADS-B
Thu 05:19:07 PM -15.8430 -41.5290 33° Northeast 471 542 37,000  Level FlightAware ADS-B
Thu 05:19:57 PM -15.7650 -41.4770 33° Northeast 471 542 37,000  Level FlightAware ADS-B
Thu 05:20:37 PM -15.7030 -41.4350 33° Northeast 471 542 37,000  Level FlightAware ADS-B
Thu 05:21:17 PM -15.6410 -41.3930 33° Northeast 471 542 37,000  Level FlightAware ADS-B
Thu 05:21:57 PM -15.5790 -41.3510 33° Northeast 471 542 37,000  Level FlightAware ADS-B
Thu 05:24:00 PM -15.4164 -41.2050 41° Northeast  Level Estimated
Thu 05:25:00 PM -15.3370 -41.1339 41° Northeast  Level Estimated
Thu 05:26:00 PM -15.2576 -41.0628 41° Northeast  Level Estimated
Thu 05:27:00 PM -15.1782 -40.9917 41° Northeast  Level Estimated
Thu 05:28:00 PM -15.0988 -40.9208 41° Northeast  Level Estimated
Thu 05:29:00 PM -15.0193 -40.8499 41° Northeast  Level Estimated
Thu 05:30:00 PM -14.9398 -40.7790 41° Northeast  Level Estimated
Thu 05:31:00 PM -14.8603 -40.7082 41° Northeast  Level Estimated
Thu 05:32:00 PM -14.7808 -40.6374 41° Northeast  Level Estimated
Thu 05:33:00 PM -14.7013 -40.5667 41° Northeast  Level Estimated
Thu 05:34:00 PM -14.6217 -40.4960 41° Northeast  Level Estimated
Thu 05:35:00 PM -14.5421 -40.4254 41° Northeast  Level Estimated
Thu 05:36:00 PM -14.4625 -40.3549 41° Northeast  Level Estimated
Thu 05:37:00 PM -14.3829 -40.2844 41° Northeast  Level Estimated
Thu 05:38:00 PM -14.3032 -40.2139 41° Northeast  Level Estimated
Thu 05:39:00 PM -14.2235 -40.1435 41° Northeast  Level Estimated
Thu 05:40:00 PM -14.1439 -40.0731 41° Northeast  Level Estimated
Thu 05:41:00 PM -14.0641 -40.0028 41° Northeast  Level Estimated
Thu 05:42:00 PM -13.9844 -39.9326 41° Northeast  Level Estimated
Thu 05:43:00 PM -13.9047 -39.8624 41° Northeast  Level Estimated
Thu 05:44:00 PM -13.8249 -39.7922 41° Northeast  Level Estimated
Thu 05:45:00 PM -13.7451 -39.7221 40° Northeast  Level Estimated
Thu 05:46:00 PM -13.6653 -39.6520 40° Northeast  Level Estimated
Thu 05:47:00 PM -13.5855 -39.5820 40° Northeast  Level Estimated
Thu 05:48:00 PM -13.5056 -39.5120 40° Northeast  Level Estimated
Thu 05:49:00 PM -13.4257 -39.4421 40° Northeast  Level Estimated
Thu 05:50:00 PM -13.3458 -39.3722 40° Northeast  Level Estimated
Thu 05:51:00 PM -13.2659 -39.3024 40° Northeast  Level Estimated
Thu 05:52:00 PM -13.1860 -39.2326 40° Northeast  Level Estimated
Thu 05:53:00 PM -13.1061 -39.1628 40° Northeast  Level Estimated
Thu 05:54:00 PM -13.0261 -39.0932 40° Northeast  Level Estimated
Thu 05:55:00 PM -12.9461 -39.0235 40° Northeast  Level Estimated
Thu 05:56:00 PM -12.8661 -38.9539 40° Northeast  Level Estimated
Thu 05:57:00 PM -12.7861 -38.8843 40° Northeast  Level Estimated
Thu 05:58:00 PM -12.7060 -38.8148 40° Northeast  Level Estimated
Thu 05:59:00 PM -12.6260 -38.7453 40° Northeast  Level Estimated
Thu 06:00:00 PM -12.5459 -38.6759 40° Northeast  Level Estimated
Thu 06:01:00 PM -12.4658 -38.6065 40° Northeast  Level Estimated
Thu 06:02:00 PM -12.3857 -38.5372 40° Northeast  Level Estimated
Thu 06:03:00 PM -12.3056 -38.4679 40° Northeast  Level Estimated
Thu 06:04:00 PM -12.2254 -38.3986 40° Northeast  Level Estimated
Thu 06:05:00 PM -12.1453 -38.3294 40° Northeast  Level Estimated
Thu 06:06:00 PM -12.0651 -38.2602 40° Northeast  Level Estimated
Thu 06:07:00 PM -11.9849 -38.1911 40° Northeast  Level Estimated
Thu 06:08:00 PM -11.9047 -38.1220 40° Northeast  Level Estimated
Thu 06:09:00 PM -11.8244 -38.0530 40° Northeast  Level Estimated
Thu 06:10:00 PM -11.7442 -37.9839 40° Northeast  Level Estimated
Thu 06:11:00 PM -11.6639 -37.9150 40° Northeast  Level Estimated
Thu 06:12:00 PM -11.5837 -37.8460 40° Northeast  Level Estimated
Thu 06:13:00 PM -11.5034 -37.7771 40° Northeast  Level Estimated
Thu 06:14:00 PM -11.4230 -37.7083 40° Northeast  Level Estimated
Thu 06:15:00 PM -11.3427 -37.6395 40° Northeast  Level Estimated
Thu 06:16:00 PM -11.2624 -37.5707 40° Northeast  Level Estimated
Thu 06:17:00 PM -11.1820 -37.5020 40° Northeast  Level Estimated
Thu 06:18:00 PM -11.1016 -37.4333 40° Northeast  Level Estimated
Thu 06:19:00 PM -11.0212 -37.3646 40° Northeast  Level Estimated
Thu 06:20:00 PM -10.9408 -37.2960 40° Northeast  Level Estimated
Thu 06:21:00 PM -10.8604 -37.2274 40° Northeast  Level Estimated
Thu 06:22:00 PM -10.7800 -37.1589 40° Northeast  Level Estimated
Thu 06:23:00 PM -10.6995 -37.0903 40° Northeast  Level Estimated
Thu 06:24:00 PM -10.6191 -37.0219 40° Northeast  Level Estimated
Thu 06:25:00 PM -10.5386 -36.9534 40° Northeast  Level Estimated
Thu 06:26:00 PM -10.4581 -36.8850 40° Northeast  Level Estimated
Thu 06:27:00 PM -10.3776 -36.8167 40° Northeast  Level Estimated
Thu 06:28:00 PM -10.2970 -36.7483 40° Northeast  Level Estimated
Thu 06:29:00 PM -10.2165 -36.6800 40° Northeast  Level Estimated
Thu 06:30:00 PM -10.1360 -36.6118 40° Northeast  Level Estimated
Thu 06:31:00 PM -10.0554 -36.5435 40° Northeast  Level Estimated
Thu 06:32:00 PM -9.9748 -36.4753 40° Northeast  Level Estimated
Thu 06:33:00 PM -9.8942 -36.4072 40° Northeast  Level Estimated
Thu 06:34:00 PM -9.8136 -36.3390 40° Northeast  Level Estimated
Thu 06:35:00 PM -9.7330 -36.2709 40° Northeast  Level Estimated
Thu 06:36:00 PM -9.6523 -36.2029 40° Northeast  Level Estimated
Thu 06:37:00 PM -9.5717 -36.1348 40° Northeast  Level Estimated
Thu 06:38:00 PM -9.4910 -36.0668 40° Northeast  Level Estimated
Thu 06:39:00 PM -9.4103 -35.9989 40° Northeast  Level Estimated
Thu 06:40:00 PM -9.3296 -35.9310 40° Northeast  Level Estimated
Thu 06:41:00 PM -9.2490 -35.8630 40° Northeast  Level Estimated
Thu 06:42:00 PM -9.1682 -35.7952 40° Northeast  Level Estimated
Thu 06:43:00 PM -9.0875 -35.7273 40° Northeast  Level Estimated
Thu 06:44:00 PM -9.0068 -35.6595 40° Northeast  Level Estimated
Thu 06:45:00 PM -8.9260 -35.5918 40° Northeast  Level Estimated
Thu 06:46:00 PM -8.8452 -35.5240 40° Northeast  Level Estimated

Login

Don't have an account? Register now (free) for customized features, flight alerts, and more!